sensor_id;sensor_type;location;lat;lon;timestamp;pressure;altitude;pressure_sealevel;temperature;humidity
46778;BME280;32536;47.128;8.746;2022-12-20T00:01:24;92267.72;;;5.97;54.03
46778;BME280;32536;47.128;8.746;2022-12-20T00:03:54;92268.81;;;5.92;54.13
46778;BME280;32536;47.128;8.746;2022-12-20T00:06:22;92268.41;;;5.90;54.31
46778;BME280;32536;47.128;8.746;2022-12-20T00:08:54;92263.84;;;5.90;54.14
46778;BME280;32536;47.128;8.746;2022-12-20T00:11:22;92267.69;;;5.93;53.75
46778;BME280;32536;47.128;8.746;2022-12-20T00:13:50;92255.16;;;5.93;53.61
46778;BME280;32536;47.128;8.746;2022-12-20T00:16:20;92261.97;;;5.91;53.78
46778;BME280;32536;47.128;8.746;2022-12-20T00:18:54;92262.69;;;5.88;53.88
46778;BME280;32536;47.128;8.746;2022-12-20T00:21:22;92272.56;;;5.87;53.68
46778;BME280;32536;47.128;8.746;2022-12-20T00:23:53;92261.88;;;5.84;53.54
46778;BME280;32536;47.128;8.746;2022-12-20T00:26:23;92271.28;;;5.77;53.96
46778;BME280;32536;47.128;8.746;2022-12-20T00:28:53;92269.75;;;5.76;54.09
46778;BME280;32536;47.128;8.746;2022-12-20T00:31:21;92273.94;;;5.77;53.89
46778;BME280;32536;47.128;8.746;2022-12-20T00:33:50;92278.47;;;5.77;53.99
46778;BME280;32536;47.128;8.746;2022-12-20T00:36:20;92275.47;;;5.79;53.96
46778;BME280;32536;47.128;8.746;2022-12-20T00:38:49;92277.00;;;5.80;54.11
46778;BME280;32536;47.128;8.746;2022-12-20T00:41:20;92266.31;;;5.76;53.93
46778;BME280;32536;47.128;8.746;2022-12-20T00:43:51;92268.91;;;5.72;54.14
46778;BME280;32536;47.128;8.746;2022-12-20T00:46:19;92265.13;;;5.73;53.68
46778;BME280;32536;47.128;8.746;2022-12-20T00:48:48;92259.09;;;5.76;53.87
46778;BME280;32536;47.128;8.746;2022-12-20T00:51:19;92262.94;;;5.79;54.16
46778;BME280;32536;47.128;8.746;2022-12-20T00:53:47;92260.69;;;5.81;53.46
46778;BME280;32536;47.128;8.746;2022-12-20T00:56:14;92266.72;;;5.78;53.59
46778;BME280;32536;47.128;8.746;2022-12-20T00:58:42;92273.53;;;5.75;54.12
46778;BME280;32536;47.128;8.746;2022-12-20T01:01:25;92266.66;;;5.74;53.90
46778;BME280;32536;47.128;8.746;2022-12-20T01:03:53;92261.28;;;5.71;53.80
46778;BME280;32536;47.128;8.746;2022-12-20T01:06:21;92271.13;;;5.67;53.72
46778;BME280;32536;47.128;8.746;2022-12-20T01:08:48;92258.47;;;5.60;54.23
46778;BME280;32536;47.128;8.746;2022-12-20T01:11:21;92257.31;;;5.57;54.34
46778;BME280;32536;47.128;8.746;2022-12-20T01:13:52;92253.94;;;5.60;54.23
46778;BME280;32536;47.128;8.746;2022-12-20T01:16:29;92252.50;;;5.67;54.32
46778;BME280;32536;47.128;8.746;2022-12-20T01:19:02;92249.59;;;5.75;54.38
46778;BME280;32536;47.128;8.746;2022-12-20T01:21:30;92242.75;;;5.74;53.76
46778;BME280;32536;47.128;8.746;2022-12-20T01:23:57;92240.03;;;5.71;54.21
46778;BME280;32536;47.128;8.746;2022-12-20T01:26:25;92232.00;;;5.67;54.07
46778;BME280;32536;47.128;8.746;2022-12-20T01:28:56;92233.91;;;5.67;54.53
46778;BME280;32536;47.128;8.746;2022-12-20T01:31:25;92238.16;;;5.71;54.49
46778;BME280;32536;47.128;8.746;2022-12-20T01:33:53;92238.59;;;5.77;54.32
46778;BME280;32536;47.128;8.746;2022-12-20T01:36:23;92230.63;;;5.77;54.39
46778;BME280;32536;47.128;8.746;2022-12-20T01:38:56;92219.66;;;5.79;54.18
46778;BME280;32536;47.128;8.746;2022-12-20T01:41:24;92220.41;;;5.79;54.15
46778;BME280;32536;47.128;8.746;2022-12-20T01:46:30;92236.31;;;5.75;54.21
46778;BME280;32536;47.128;8.746;2022-12-20T01:49:09;92219.97;;;5.77;54.07
46778;BME280;32536;47.128;8.746;2022-12-20T01:51:49;92219.66;;;5.79;53.79
46778;BME280;32536;47.128;8.746;2022-12-20T01:57:05;92211.25;;;5.76;54.18
46778;BME280;32536;47.128;8.746;2022-12-20T01:59:45;92203.59;;;5.71;53.70
46778;BME280;32536;47.128;8.746;2022-12-20T02:02:15;92193.72;;;5.72;53.78
46778;BME280;32536;47.128;8.746;2022-12-20T02:04:41;92190.31;;;5.71;54.11
46778;BME280;32536;47.128;8.746;2022-12-20T02:07:11;92184.19;;;5.71;54.19
46778;BME280;32536;47.128;8.746;2022-12-20T02:09:44;92188.44;;;5.75;54.17
46778;BME280;32536;47.128;8.746;2022-12-20T02:12:14;92186.22;;;5.77;53.95
46778;BME280;32536;47.128;8.746;2022-12-20T02:15:20;92195.34;;;5.80;53.37
46778;BME280;32536;47.128;8.746;2022-12-20T02:18:22;92185.09;;;5.82;53.37
46778;BME280;32536;47.128;8.746;2022-12-20T02:21:22;92186.59;;;5.80;53.58
46778;BME280;32536;47.128;8.746;2022-12-20T02:30:21;92194.53;;;5.76;53.75
46778;BME280;32536;47.128;8.746;2022-12-20T02:33:11;92192.97;;;5.71;53.85
46778;BME280;32536;47.128;8.746;2022-12-20T02:35:40;92184.56;;;5.69;53.88
46778;BME280;32536;47.128;8.746;2022-12-20T02:38:28;92182.63;;;5.66;53.86
46778;BME280;32536;47.128;8.746;2022-12-20T02:41:10;92194.78;;;5.67;53.80
46778;BME280;32536;47.128;8.746;2022-12-20T02:43:48;92201.28;;;5.70;54.07
46778;BME280;32536;47.128;8.746;2022-12-20T02:46:38;92207.75;;;5.72;53.94
46778;BME280;32536;47.128;8.746;2022-12-20T02:49:12;92198.28;;;5.71;54.25
46778;BME280;32536;47.128;8.746;2022-12-20T02:51:44;92187.66;;;5.71;53.80
46778;BME280;32536;47.128;8.746;2022-12-20T02:54:14;92185.31;;;5.70;53.92
46778;BME280;32536;47.128;8.746;2022-12-20T02:56:46;92186.88;;;5.71;54.27
46778;BME280;32536;47.128;8.746;2022-12-20T02:59:42;92185.38;;;5.73;53.92
46778;BME280;32536;47.128;8.746;2022-12-20T03:02:16;92182.72;;;5.73;53.91
46778;BME280;32536;47.128;8.746;2022-12-20T03:04:43;92178.19;;;5.74;53.98
46778;BME280;32536;47.128;8.746;2022-12-20T03:07:12;92170.13;;;5.67;54.18
46778;BME280;32536;47.128;8.746;2022-12-20T03:09:41;92165.81;;;5.58;54.35
46778;BME280;32536;47.128;8.746;2022-12-20T03:12:10;92169.97;;;5.56;54.51
46778;BME280;32536;47.128;8.746;2022-12-20T03:14:38;92167.31;;;5.56;54.24
46778;BME280;32536;47.128;8.746;2022-12-20T03:17:06;92171.50;;;5.57;54.13
46778;BME280;32536;47.128;8.746;2022-12-20T03:19:33;92156.72;;;5.59;54.23
46778;BME280;32536;47.128;8.746;2022-12-20T03:22:00;92159.75;;;5.58;54.54
46778;BME280;32536;47.128;8.746;2022-12-20T03:24:45;92155.56;;;5.57;53.81
46778;BME280;32536;47.128;8.746;2022-12-20T03:27:12;92168.06;;;5.56;53.93
46778;BME280;32536;47.128;8.746;2022-12-20T03:29:39;92160.09;;;5.56;54.20
46778;BME280;32536;47.128;8.746;2022-12-20T03:32:05;92154.44;;;5.58;53.70
46778;BME280;32536;47.128;8.746;2022-12-20T03:34:32;92150.25;;;5.57;53.89
46778;BME280;32536;47.128;8.746;2022-12-20T03:36:59;92142.97;;;5.54;53.89
46778;BME280;32536;47.128;8.746;2022-12-20T03:39:26;92138.41;;;5.51;54.10
46778;BME280;32536;47.128;8.746;2022-12-20T03:41:52;92136.06;;;5.49;54.34
46778;BME280;32536;47.128;8.746;2022-12-20T03:44:19;92139.94;;;5.52;54.59
46778;BME280;32536;47.128;8.746;2022-12-20T03:46:46;92137.72;;;5.57;54.12
46778;BME280;32536;47.128;8.746;2022-12-20T03:49:13;92133.22;;;5.61;53.90
46778;BME280;32536;47.128;8.746;2022-12-20T03:51:39;92130.94;;;5.64;54.04
46778;BME280;32536;47.128;8.746;2022-12-20T03:54:06;92131.69;;;5.60;53.80
46778;BME280;32536;47.128;8.746;2022-12-20T03:56:33;92131.69;;;5.60;54.41
46778;BME280;32536;47.128;8.746;2022-12-20T03:59:00;92127.94;;;5.65;53.83
46778;BME280;32536;47.128;8.746;2022-12-20T04:01:28;92131.78;;;5.68;54.08
46778;BME280;32536;47.128;8.746;2022-12-20T04:03:55;92126.47;;;5.68;54.03
46778;BME280;32536;47.128;8.746;2022-12-20T04:06:22;92129.50;;;5.70;53.91
46778;BME280;32536;47.128;8.746;2022-12-20T04:08:49;92120.03;;;5.72;53.78
46778;BME280;32536;47.128;8.746;2022-12-20T04:11:16;92123.47;;;5.73;53.63
46778;BME280;32536;47.128;8.746;2022-12-20T04:13:51;92119.28;;;5.72;53.42
46778;BME280;32536;47.128;8.746;2022-12-20T04:16:20;92114.38;;;5.74;53.66
46778;BME280;32536;47.128;8.746;2022-12-20T04:18:49;92116.22;;;5.70;53.47
46778;BME280;32536;47.128;8.746;2022-12-20T04:21:21;92104.69;;;5.58;54.04
46778;BME280;32536;47.128;8.746;2022-12-20T04:23:49;92106.13;;;5.52;54.34
46778;BME280;32536;47.128;8.746;2022-12-20T04:26:17;92117.44;;;5.45;54.23
46778;BME280;32536;47.128;8.746;2022-12-20T04:28:44;92120.44;;;5.44;54.43
46778;BME280;32536;47.128;8.746;2022-12-20T04:31:11;92120.91;;;5.50;54.17
46778;BME280;32536;47.128;8.746;2022-12-20T04:36:23;92114.88;;;5.53;54.39
46778;BME280;32536;47.128;8.746;2022-12-20T04:38:50;92109.91;;;5.51;54.45
46778;BME280;32536;47.128;8.746;2022-12-20T04:41:17;92109.53;;;5.53;54.15
46778;BME280;32536;47.128;8.746;2022-12-20T04:43:53;92096.22;;;5.49;54.40
46778;BME280;32536;47.128;8.746;2022-12-20T04:46:23;92104.19;;;5.49;54.28
46778;BME280;32536;47.128;8.746;2022-12-20T04:48:51;92114.88;;;5.53;54.33
46778;BME280;32536;47.128;8.746;2022-12-20T04:51:18;92115.69;;;5.57;53.91
46778;BME280;32536;47.128;8.746;2022-12-20T04:53:45;92105.41;;;5.55;53.90
46778;BME280;32536;47.128;8.746;2022-12-20T04:56:21;92099.97;;;5.44;53.89
46778;BME280;32536;47.128;8.746;2022-12-20T04:58:51;92100.69;;;5.41;53.97
46778;BME280;32536;47.128;8.746;2022-12-20T05:01:19;92105.63;;;5.43;54.47
46778;BME280;32536;47.128;8.746;2022-12-20T05:03:48;92102.22;;;5.42;53.69
46778;BME280;32536;47.128;8.746;2022-12-20T05:06:15;92100.25;;;5.39;54.23
46778;BME280;32536;47.128;8.746;2022-12-20T05:08:42;92105.25;;;5.41;54.17
46778;BME280;32536;47.128;8.746;2022-12-20T05:11:09;92099.97;;;5.44;54.48
46778;BME280;32536;47.128;8.746;2022-12-20T05:13:36;92090.50;;;5.47;54.14
46778;BME280;32536;47.128;8.746;2022-12-20T05:16:03;92091.63;;;5.46;54.18
46778;BME280;32536;47.128;8.746;2022-12-20T05:18:30;92091.28;;;5.48;54.16
46778;BME280;32536;47.128;8.746;2022-12-20T05:20:59;92093.22;;;5.51;54.26
46778;BME280;32536;47.128;8.746;2022-12-20T05:23:45;92091.31;;;5.51;53.96
46778;BME280;32536;47.128;8.746;2022-12-20T05:26:33;92083.34;;;5.51;53.80
46778;BME280;32536;47.128;8.746;2022-12-20T05:29:01;92084.13;;;5.55;53.93
46778;BME280;32536;47.128;8.746;2022-12-20T05:31:28;92077.66;;;5.53;54.19
46778;BME280;32536;47.128;8.746;2022-12-20T05:33:55;92072.66;;;5.48;54.46
46778;BME280;32536;47.128;8.746;2022-12-20T05:36:22;92074.91;;;5.45;54.58
46778;BME280;32536;47.128;8.746;2022-12-20T05:38:48;92073.41;;;5.44;53.98
46778;BME280;32536;47.128;8.746;2022-12-20T05:41:15;92073.00;;;5.42;53.73
46778;BME280;32536;47.128;8.746;2022-12-20T05:43:42;92074.84;;;5.38;53.77
46778;BME280;32536;47.128;8.746;2022-12-20T05:46:08;92066.41;;;5.33;53.95
46778;BME280;32536;47.128;8.746;2022-12-20T05:48:35;92071.69;;;5.29;54.18
46778;BME280;32536;47.128;8.746;2022-12-20T05:51:02;92076.94;;;5.25;54.07
46778;BME280;32536;47.128;8.746;2022-12-20T05:53:29;92076.94;;;5.25;54.11
46778;BME280;32536;47.128;8.746;2022-12-20T05:55:56;92079.25;;;5.27;54.33
46778;BME280;32536;47.128;8.746;2022-12-20T05:58:23;92075.03;;;5.26;54.47
46778;BME280;32536;47.128;8.746;2022-12-20T06:00:50;92067.91;;;5.30;54.19
46778;BME280;32536;47.128;8.746;2022-12-20T06:03:16;92066.78;;;5.31;53.98
46778;BME280;32536;47.128;8.746;2022-12-20T06:05:44;92070.25;;;5.35;54.05
46778;BME280;32536;47.128;8.746;2022-12-20T06:08:11;92057.41;;;5.41;54.40
46778;BME280;32536;47.128;8.746;2022-12-20T06:10:39;92053.59;;;5.42;54.43
46778;BME280;32536;47.128;8.746;2022-12-20T06:13:07;92059.72;;;5.42;54.12
46778;BME280;32536;47.128;8.746;2022-12-20T06:15:34;92054.81;;;5.44;54.20
46778;BME280;32536;47.128;8.746;2022-12-20T06:18:01;92051.44;;;5.51;54.36
46778;BME280;32536;47.128;8.746;2022-12-20T06:20:28;92048.84;;;5.55;54.33
46778;BME280;32536;47.128;8.746;2022-12-20T06:22:55;92041.31;;;5.60;53.57
46778;BME280;32536;47.128;8.746;2022-12-20T06:25:22;92033.72;;;5.63;53.81
46778;BME280;32536;47.128;8.746;2022-12-20T06:27:49;92031.44;;;5.61;53.47
46778;BME280;32536;47.128;8.746;2022-12-20T06:30:17;92031.41;;;5.57;53.76
46778;BME280;32536;47.128;8.746;2022-12-20T06:32:45;92037.50;;;5.58;53.60
46778;BME280;32536;47.128;8.746;2022-12-20T06:35:12;92044.31;;;5.59;53.62
46778;BME280;32536;47.128;8.746;2022-12-20T06:37:40;92039.34;;;5.54;54.03
46778;BME280;32536;47.128;8.746;2022-12-20T06:40:09;92045.78;;;5.53;53.99
46778;BME280;32536;47.128;8.746;2022-12-20T06:42:37;92034.38;;;5.52;54.22
46778;BME280;32536;47.128;8.746;2022-12-20T06:45:05;92032.84;;;5.51;54.29
46778;BME280;32536;47.128;8.746;2022-12-20T06:47:32;92031.41;;;5.57;54.23
46778;BME280;32536;47.128;8.746;2022-12-20T06:49:59;92038.69;;;5.64;54.33
46778;BME280;32536;47.128;8.746;2022-12-20T06:52:26;92028.88;;;5.68;53.97
46778;BME280;32536;47.128;8.746;2022-12-20T06:54:52;92028.16;;;5.71;54.34
46778;BME280;32536;47.128;8.746;2022-12-20T06:57:19;92033.47;;;5.71;53.96
46778;BME280;32536;47.128;8.746;2022-12-20T06:59:46;92038.78;;;5.71;53.88
46778;BME280;32536;47.128;8.746;2022-12-20T07:02:13;92038.00;;;5.71;53.70
46778;BME280;32536;47.128;8.746;2022-12-20T07:04:40;92034.59;;;5.70;54.15
46778;BME280;32536;47.128;8.746;2022-12-20T07:07:07;92045.25;;;5.74;53.87
46778;BME280;32536;47.128;8.746;2022-12-20T07:09:34;92051.38;;;5.78;53.99
46778;BME280;32536;47.128;8.746;2022-12-20T07:12:02;92054.81;;;5.82;53.54
46778;BME280;32536;47.128;8.746;2022-12-20T07:14:30;92055.19;;;5.81;53.49
46778;BME280;32536;47.128;8.746;2022-12-20T07:16:56;92066.19;;;5.79;53.70
46778;BME280;32536;47.128;8.746;2022-12-20T07:19:23;92065.78;;;5.77;54.30
46778;BME280;32536;47.128;8.746;2022-12-20T07:21:50;92057.47;;;5.79;54.20
46778;BME280;32536;47.128;8.746;2022-12-20T07:24:16;92060.47;;;5.77;54.12
46778;BME280;32536;47.128;8.746;2022-12-20T07:26:44;92055.53;;;5.75;54.38
46778;BME280;32536;47.128;8.746;2022-12-20T07:29:11;92053.63;;;5.76;54.08
46778;BME280;32536;47.128;8.746;2022-12-20T07:31:38;92050.28;;;5.83;54.12
46778;BME280;32536;47.128;8.746;2022-12-20T07:34:05;92051.88;;;5.87;54.49
46778;BME280;32536;47.128;8.746;2022-12-20T07:36:32;92058.75;;;5.92;54.49
46778;BME280;32536;47.128;8.746;2022-12-20T07:39:00;92064.50;;;5.98;54.54
46778;BME280;32536;47.128;8.746;2022-12-20T07:41:26;92059.66;;;6.03;54.08
46778;BME280;32536;47.128;8.746;2022-12-20T07:43:53;92071.06;;;6.07;54.34
46778;BME280;32536;47.128;8.746;2022-12-20T07:46:20;92062.00;;;6.12;54.03
46778;BME280;32536;47.128;8.746;2022-12-20T07:48:47;92063.16;;;6.15;54.16
46778;BME280;32536;47.128;8.746;2022-12-20T07:51:20;92059.75;;;6.14;54.73
46778;BME280;32536;47.128;8.746;2022-12-20T07:54:01;92065.13;;;6.18;54.21
46778;BME280;32536;47.128;8.746;2022-12-20T07:56:33;92059.81;;;6.21;53.95
46778;BME280;32536;47.128;8.746;2022-12-20T07:59:04;92065.22;;;6.29;54.52
46778;BME280;32536;47.128;8.746;2022-12-20T08:01:32;92077.81;;;6.35;54.21
46778;BME280;32536;47.128;8.746;2022-12-20T08:04:03;92085.09;;;6.42;53.61
46778;BME280;32536;47.128;8.746;2022-12-20T08:06:33;92067.97;;;6.43;54.33
46778;BME280;32536;47.128;8.746;2022-12-20T08:09:04;92056.19;;;6.40;54.38
46778;BME280;32536;47.128;8.746;2022-12-20T08:11:33;92057.31;;;6.39;54.01
46778;BME280;32536;47.128;8.746;2022-12-20T08:14:04;92058.09;;;6.40;54.29
46778;BME280;32536;47.128;8.746;2022-12-20T08:16:33;92059.94;;;6.36;53.82
46778;BME280;32536;47.128;8.746;2022-12-20T08:19:00;92059.94;;;6.36;53.88
46778;BME280;32536;47.128;8.746;2022-12-20T08:21:27;92064.91;;;6.37;53.68
46778;BME280;32536;47.128;8.746;2022-12-20T08:23:54;92055.44;;;6.40;53.78
46778;BME280;32536;47.128;8.746;2022-12-20T08:26:21;92050.09;;;6.40;54.12
46778;BME280;32536;47.128;8.746;2022-12-20T08:28:48;92055.84;;;6.42;54.14
46778;BME280;32536;47.128;8.746;2022-12-20T08:31:16;92050.88;;;6.44;53.83
46778;BME280;32536;47.128;8.746;2022-12-20T08:33:43;92053.16;;;6.46;54.42
46778;BME280;32536;47.128;8.746;2022-12-20T08:36:11;92041.81;;;6.49;54.16
46778;BME280;32536;47.128;8.746;2022-12-20T08:38:39;92045.28;;;6.56;53.95
46778;BME280;32536;47.128;8.746;2022-12-20T08:41:11;92033.53;;;6.61;53.95
46778;BME280;32536;47.128;8.746;2022-12-20T08:43:40;92024.81;;;6.64;53.93
46778;BME280;32536;47.128;8.746;2022-12-20T08:46:08;92024.47;;;6.69;53.77
46778;BME280;32536;47.128;8.746;2022-12-20T08:48:37;92021.06;;;6.69;54.52
46778;BME280;32536;47.128;8.746;2022-12-20T08:51:07;92018.38;;;6.69;53.97
46778;BME280;32536;47.128;8.746;2022-12-20T08:53:35;92016.50;;;6.73;54.37
46778;BME280;32536;47.128;8.746;2022-12-20T08:56:13;92021.06;;;6.76;53.78
46778;BME280;32536;47.128;8.746;2022-12-20T08:58:42;92010.44;;;6.80;53.39
46778;BME280;32536;47.128;8.746;2022-12-20T09:01:15;92008.53;;;6.77;54.03
46778;BME280;32536;47.128;8.746;2022-12-20T09:03:43;92002.41;;;6.72;54.22
46778;BME280;32536;47.128;8.746;2022-12-20T09:06:14;92011.56;;;6.71;53.82
46778;BME280;32536;47.128;8.746;2022-12-20T09:08:42;92010.81;;;6.75;53.80
46778;BME280;32536;47.128;8.746;2022-12-20T09:11:21;92008.94;;;6.79;54.23
46778;BME280;32536;47.128;8.746;2022-12-20T09:13:52;92008.59;;;6.84;53.33
46778;BME280;32536;47.128;8.746;2022-12-20T09:16:24;92008.97;;;6.86;53.90
46778;BME280;32536;47.128;8.746;2022-12-20T09:18:53;91999.81;;;6.83;53.81
46778;BME280;32536;47.128;8.746;2022-12-20T09:21:21;92009.31;;;6.81;53.76
46778;BME280;32536;47.128;8.746;2022-12-20T09:23:50;92026.44;;;6.80;53.73
46778;BME280;32536;47.128;8.746;2022-12-20T09:26:18;92022.66;;;6.84;54.41
46778;BME280;32536;47.128;8.746;2022-12-20T09:28:47;92023.81;;;6.87;53.72
46778;BME280;32536;47.128;8.746;2022-12-20T09:31:16;92020.78;;;6.85;53.86
46778;BME280;32536;47.128;8.746;2022-12-20T09:33:45;92025.31;;;6.84;53.84
46778;BME280;32536;47.128;8.746;2022-12-20T09:36:14;92024.16;;;6.82;54.40
46778;BME280;32536;47.128;8.746;2022-12-20T09:38:43;92024.19;;;6.85;54.53
46778;BME280;32536;47.128;8.746;2022-12-20T09:41:31;92022.31;;;6.89;53.82
46778;BME280;32536;47.128;8.746;2022-12-20T09:44:03;92017.41;;;6.95;53.77
46778;BME280;32536;47.128;8.746;2022-12-20T09:46:59;92027.31;;;6.98;53.94
46778;BME280;32536;47.128;8.746;2022-12-20T09:49:32;92018.94;;;7.00;54.20
46778;BME280;32536;47.128;8.746;2022-12-20T10:00:34;92006.88;;;7.17;54.08
46778;BME280;32536;47.128;8.746;2022-12-20T10:03:11;92004.22;;;7.20;54.06
46778;BME280;32536;47.128;8.746;2022-12-20T10:05:53;91993.59;;;7.28;54.12
46778;BME280;32536;47.128;8.746;2022-12-20T10:14:29;91994.00;;;7.41;53.73
46778;BME280;32536;47.128;8.746;2022-12-20T10:23:18;91984.47;;;7.36;53.58
46778;BME280;32536;47.128;8.746;2022-12-20T10:25:58;91983.72;;;7.39;54.23
46778;BME280;32536;47.128;8.746;2022-12-20T10:28:28;91987.53;;;7.34;53.74
46778;BME280;32536;47.128;8.746;2022-12-20T10:31:01;91992.13;;;7.37;54.44
46778;BME280;32536;47.128;8.746;2022-12-20T10:33:33;91982.97;;;7.39;54.08
46778;BME280;32536;47.128;8.746;2022-12-20T10:39:04;91962.44;;;7.43;53.68
46778;BME280;32536;47.128;8.746;2022-12-20T10:41:45;91960.91;;;7.49;53.94
46778;BME280;32536;47.128;8.746;2022-12-20T10:44:18;91962.84;;;7.52;53.97
46778;BME280;32536;47.128;8.746;2022-12-20T10:46:54;91955.97;;;7.51;54.09
46778;BME280;32536;47.128;8.746;2022-12-20T10:49:35;91948.34;;;7.53;53.76
46778;BME280;32536;47.128;8.746;2022-12-20T10:52:11;91937.72;;;7.60;54.03
46778;BME280;32536;47.128;8.746;2022-12-20T10:54:44;91925.94;;;7.68;53.28
46778;BME280;32536;47.128;8.746;2022-12-20T10:57:28;91908.03;;;7.76;53.33
46778;BME280;32536;47.128;8.746;2022-12-20T11:00:05;91896.63;;;7.83;53.71
46778;BME280;32536;47.128;8.746;2022-12-20T11:02:35;91902.34;;;7.85;53.96
46778;BME280;32536;47.128;8.746;2022-12-20T11:05:15;91902.69;;;7.87;53.78
46778;BME280;32536;47.128;8.746;2022-12-20T11:07:57;91893.16;;;7.90;53.96
46778;BME280;32536;47.128;8.746;2022-12-20T11:10:28;91877.94;;;7.94;53.65
46778;BME280;32536;47.128;8.746;2022-12-20T11:13:00;91874.88;;;7.95;53.28
46778;BME280;32536;47.128;8.746;2022-12-20T11:15:33;91858.88;;;7.99;53.40
46778;BME280;32536;47.128;8.746;2022-12-20T11:18:19;91850.88;;;8.02;53.86
46778;BME280;32536;47.128;8.746;2022-12-20T11:24:10;91838.69;;;8.09;53.90
46778;BME280;32536;47.128;8.746;2022-12-20T11:27:06;91827.59;;;8.14;53.46
46778;BME280;32536;47.128;8.746;2022-12-20T11:41:22;91791.72;;;8.37;53.76
46778;BME280;32536;47.128;8.746;2022-12-20T11:44:23;91805.47;;;8.39;53.40
46778;BME280;32536;47.128;8.746;2022-12-20T11:52:38;91792.56;;;8.19;54.25
46778;BME280;32536;47.128;8.746;2022-12-20T11:55:21;91790.25;;;8.10;54.15
46778;BME280;32536;47.128;8.746;2022-12-20T11:58:11;91782.66;;;8.01;54.17
46778;BME280;32536;47.128;8.746;2022-12-20T12:00:55;91782.31;;;7.92;54.66
46778;BME280;32536;47.128;8.746;2022-12-20T12:03:35;91778.88;;;7.88;54.85
46778;BME280;32536;47.128;8.746;2022-12-20T12:06:09;91788.78;;;7.88;54.12
46778;BME280;32536;47.128;8.746;2022-12-20T12:08:47;91771.63;;;7.89;54.40
46778;BME280;32536;47.128;8.746;2022-12-20T12:11:35;91776.59;;;7.94;54.98
46778;BME280;32536;47.128;8.746;2022-12-20T12:14:05;91782.25;;;8.03;54.60
46778;BME280;32536;47.128;8.746;2022-12-20T12:16:49;91785.31;;;8.16;54.66
46778;BME280;32536;47.128;8.746;2022-12-20T12:19:20;91781.09;;;8.26;54.12
46778;BME280;32536;47.128;8.746;2022-12-20T12:21:56;91779.53;;;8.36;54.01
46778;BME280;32536;47.128;8.746;2022-12-20T12:24:33;91779.88;;;8.45;54.13
46778;BME280;32536;47.128;8.746;2022-12-20T12:27:04;91783.69;;;8.55;53.97
46778;BME280;32536;47.128;8.746;2022-12-20T12:29:33;91781.00;;;8.65;53.95
46778;BME280;32536;47.128;8.746;2022-12-20T12:32:16;91768.75;;;8.72;53.73
46778;BME280;32536;47.128;8.746;2022-12-20T12:38:55;91782.03;;;8.86;53.29
46778;BME280;32536;47.128;8.746;2022-12-20T12:44:49;91800.31;;;8.91;53.64
46778;BME280;32536;47.128;8.746;2022-12-20T12:47:39;91785.03;;;8.95;53.33
46778;BME280;32536;47.128;8.746;2022-12-20T12:50:17;91799.50;;;9.02;53.28
46778;BME280;32536;47.128;8.746;2022-12-20T12:52:51;91798.75;;;9.01;53.80
46778;BME280;32536;47.128;8.746;2022-12-20T12:55:40;91804.50;;;9.00;53.64
46778;BME280;32536;47.128;8.746;2022-12-20T12:58:14;91803.72;;;8.99;53.93
46778;BME280;32536;47.128;8.746;2022-12-20T13:00:59;91801.78;;;9.03;53.83
46778;BME280;32536;47.128;8.746;2022-12-20T13:03:41;91802.13;;;9.09;53.52
46778;BME280;32536;47.128;8.746;2022-12-20T13:11:38;91809.78;;;9.03;53.77
46778;BME280;32536;47.128;8.746;2022-12-20T13:27:49;91809.38;;;9.16;53.59
46778;BME280;32536;47.128;8.746;2022-12-20T13:38:00;91798.97;;;9.25;52.84
46778;BME280;32536;47.128;8.746;2022-12-20T13:40:42;91800.53;;;9.22;53.22
46778;BME280;32536;47.128;8.746;2022-12-20T13:45:54;91806.69;;;9.16;53.12
46778;BME280;32536;47.128;8.746;2022-12-20T13:51:25;91798.34;;;9.06;53.10
46778;BME280;32536;47.128;8.746;2022-12-20T13:53:55;91812.44;;;9.07;53.35
46778;BME280;32536;47.128;8.746;2022-12-20T13:58:53;91801.41;;;9.05;53.71
46778;BME280;32536;47.128;8.746;2022-12-20T14:01:23;91797.19;;;9.07;53.75
46778;BME280;32536;47.128;8.746;2022-12-20T14:03:51;91801.38;;;9.12;53.71
46778;BME280;32536;47.128;8.746;2022-12-20T14:06:20;91808.59;;;9.15;53.64
46778;BME280;32536;47.128;8.746;2022-12-20T14:08:51;91809.69;;;9.21;53.51
46778;BME280;32536;47.128;8.746;2022-12-20T14:11:22;91803.59;;;9.24;53.11
46778;BME280;32536;47.128;8.746;2022-12-20T14:13:58;91804.31;;;9.28;53.55
46778;BME280;32536;47.128;8.746;2022-12-20T14:16:28;91797.81;;;9.29;53.74
46778;BME280;32536;47.128;8.746;2022-12-20T14:21:28;91816.13;;;9.35;53.30
46778;BME280;32536;47.128;8.746;2022-12-20T14:23:56;91805.03;;;9.36;53.31
46778;BME280;32536;47.128;8.746;2022-12-20T14:26:29;91798.16;;;9.39;53.32
46778;BME280;32536;47.128;8.746;2022-12-20T14:29:00;91796.19;;;9.43;53.54
46778;BME280;32536;47.128;8.746;2022-12-20T14:31:41;91792.38;;;9.44;52.97
46778;BME280;32536;47.128;8.746;2022-12-20T14:36:37;91774.00;;;9.50;53.12
46778;BME280;32536;47.128;8.746;2022-12-20T14:42:10;91776.75;;;9.39;52.97
46778;BME280;32536;47.128;8.746;2022-12-20T14:44:38;91773.69;;;9.40;52.99
46778;BME280;32536;47.128;8.746;2022-12-20T14:47:25;91769.13;;;9.37;52.96
46778;BME280;32536;47.128;8.746;2022-12-20T14:49:58;91766.44;;;9.37;53.19
46778;BME280;32536;47.128;8.746;2022-12-20T14:52:37;91772.56;;;9.38;53.04
46778;BME280;32536;47.128;8.746;2022-12-20T14:57:55;91763.00;;;9.40;53.14
46778;BME280;32536;47.128;8.746;2022-12-20T15:00:30;91772.94;;;9.40;53.01
46778;BME280;32536;47.128;8.746;2022-12-20T15:03:21;91774.13;;;9.35;52.75
46778;BME280;32536;47.128;8.746;2022-12-20T15:05:49;91787.50;;;9.32;53.06
46778;BME280;32536;47.128;8.746;2022-12-20T15:13:47;91757.53;;;8.99;53.44
46778;BME280;32536;47.128;8.746;2022-12-20T15:16:21;91772.13;;;8.83;53.38
46778;BME280;32536;47.128;8.746;2022-12-20T15:18:54;91768.34;;;8.77;53.47
46778;BME280;32536;47.128;8.746;2022-12-20T15:24:12;91762.66;;;8.68;53.44
46778;BME280;32536;47.128;8.746;2022-12-20T15:26:41;91766.84;;;8.65;53.43
46778;BME280;32536;47.128;8.746;2022-12-20T15:29:23;91772.59;;;8.60;53.89
46778;BME280;32536;47.128;8.746;2022-12-20T15:34:35;91768.03;;;8.57;53.59
46778;BME280;32536;47.128;8.746;2022-12-20T15:37:03;91766.91;;;8.51;53.58